Time;durP1;ratioP1;P1;durP2;ratioP2;P2;SDS_P1;SDS_P2;PMS_P1;PMS_P2;Temp;Humidity;BMP_temperature;BMP_pressure;BME280_temperature;BME280_humidity;BME280_pressure;Samples;Min_cycle;Max_cycle;Signal;HPM_P1;HPM_P2
2024/04/21 00:01:31;;;;;;;6.30;1.77;;;8.20;99.90;;;;;;5382207;26;20127;-70
2024/04/21 00:03:58;;;;;;;8.00;2.17;;;8.20;99.90;;;;;;5382088;26;20016;-70
2024/04/21 00:06:26;;;;;;;15.30;1.98;;;8.20;99.90;;;;;;5392355;26;20000;-71
2024/04/21 00:08:53;;;;;;;8.02;1.58;;;8.20;99.90;;;;;;5385578;26;20096;-69
2024/04/21 00:11:19;;;;;;;7.45;1.73;;;8.10;99.90;;;;;;5389148;26;20323;-69
2024/04/21 00:13:46;;;;;;;7.13;1.38;;;8.10;99.90;;;;;;5396033;26;20004;-69
2024/04/21 00:16:14;;;;;;;7.65;1.80;;;8.10;99.90;;;;;;5383701;26;20049;-69
2024/04/21 00:18:41;;;;;;;8.05;1.77;;;8.10;99.90;;;;;;5391370;26;20040;-69
2024/04/21 00:21:08;;;;;;;18.38;2.55;;;8.10;99.90;;;;;;5404225;26;20011;-70
2024/04/21 00:23:38;;;;;;;11.75;1.85;;;8.20;99.90;;;;;;5389532;26;20007;-70
2024/04/21 00:26:05;;;;;;;8.68;1.80;;;8.10;99.90;;;;;;5388521;26;20012;-69
2024/04/21 00:28:31;;;;;;;7.00;1.55;;;8.10;99.90;;;;;;5401098;26;20003;-70
2024/04/21 00:30:59;;;;;;;10.90;1.30;;;8.20;99.90;;;;;;5350416;26;20444;-70
2024/04/21 00:33:26;;;;;;;11.10;2.10;;;8.20;99.90;;;;;;5395785;26;20031;-70
2024/04/21 00:35:53;;;;;;;11.50;2.10;;;8.20;99.90;;;;;;5394670;26;20115;-70
2024/04/21 00:38:20;;;;;;;15.07;3.25;;;8.10;99.90;;;;;;5386383;26;20435;-70
2024/04/21 00:40:47;;;;;;;6.63;1.30;;;8.10;99.90;;;;;;5383522;26;20020;-69
2024/04/21 00:43:14;;;;;;;12.27;2.75;;;8.10;99.90;;;;;;5394061;26;20015;-69
2024/04/21 00:45:45;;;;;;;14.43;2.90;;;8.10;99.90;;;;;;5389850;26;19996;-69
2024/04/21 00:48:13;;;;;;;12.13;1.70;;;8.10;99.90;;;;;;5372546;26;20003;-71
2024/04/21 00:50:42;;;;;;;15.60;3.17;;;8.10;99.90;;;;;;5387447;26;20012;-70
2024/04/21 00:53:10;;;;;;;6.72;1.60;;;8.00;99.90;;;;;;5400082;26;20068;-69
2024/04/21 00:55:37;;;;;;;12.40;1.77;;;8.00;99.90;;;;;;5385309;26;20007;-70
2024/04/21 00:58:05;;;;;;;14.95;2.22;;;8.00;99.90;;;;;;5392303;26;20011;-70
2024/04/21 01:00:32;;;;;;;16.00;2.15;;;8.10;99.90;;;;;;5382285;26;20048;-69
2024/04/21 01:03:04;;;;;;;8.70;1.63;;;8.10;99.90;;;;;;5375566;26;19996;-68
2024/04/21 01:05:31;;;;;;;16.00;2.03;;;8.10;99.90;;;;;;5379781;26;20011;-69
2024/04/21 01:07:58;;;;;;;8.55;2.05;;;8.10;99.90;;;;;;5389942;26;20018;-70
2024/04/21 01:10:25;;;;;;;7.43;2.10;;;8.10;99.90;;;;;;5384705;26;20470;-68
2024/04/21 01:12:52;;;;;;;13.82;1.67;;;8.00;99.90;;;;;;5375923;26;20027;-69
2024/04/21 01:15:19;;;;;;;13.63;2.40;;;8.00;99.90;;;;;;5390107;26;20015;-70
2024/04/21 01:17:46;;;;;;;23.10;3.63;;;8.00;99.90;;;;;;5397607;26;20014;-70
2024/04/21 01:20:13;;;;;;;12.20;2.75;;;7.90;99.90;;;;;;5387918;26;20010;-69
2024/04/21 01:22:47;;;;;;;28.73;6.03;;;7.90;99.90;;;;;;5381834;26;20461;-72
2024/04/21 01:25:15;;;;;;;13.00;3.15;;;8.00;99.90;;;;;;5386300;26;19999;-69
2024/04/21 01:27:42;;;;;;;11.85;1.63;;;7.90;99.90;;;;;;5392862;26;20005;-69
2024/04/21 01:30:09;;;;;;;6.80;1.83;;;8.00;99.90;;;;;;5396705;26;20074;-69
2024/04/21 01:32:37;;;;;;;16.20;2.95;;;8.00;99.90;;;;;;5378331;26;20026;-69
2024/04/21 01:35:05;;;;;;;9.73;2.97;;;8.00;99.90;;;;;;5403346;26;20046;-69
2024/04/21 01:37:32;;;;;;;15.57;4.30;;;7.90;99.90;;;;;;5391688;26;20745;-69
2024/04/21 01:39:59;;;;;;;8.00;2.90;;;8.00;99.90;;;;;;5384358;26;20042;-69
2024/04/21 01:42:26;;;;;;;8.50;2.00;;;7.90;99.90;;;;;;5394250;26;20004;-70
2024/04/21 01:44:53;;;;;;;5.15;1.52;;;7.90;99.90;;;;;;5393806;26;20016;-70
2024/04/21 01:47:20;;;;;;;7.05;1.63;;;7.90;99.90;;;;;;5386208;26;20044;-69
2024/04/21 01:49:48;;;;;;;11.02;2.97;;;8.00;99.90;;;;;;5391901;26;20007;-69
2024/04/21 01:52:15;;;;;;;15.45;1.70;;;7.90;99.90;;;;;;5387877;26;20454;-70
2024/04/21 01:54:42;;;;;;;8.30;1.77;;;7.80;99.90;;;;;;5375005;26;20004;-68
2024/04/21 01:57:09;;;;;;;9.02;1.88;;;7.80;99.90;;;;;;5387689;26;20011;-70
2024/04/21 01:59:36;;;;;;;9.18;2.85;;;7.80;99.90;;;;;;5395832;26;20036;-69
2024/04/21 02:02:03;;;;;;;7.28;1.95;;;7.90;99.90;;;;;;5398036;26;20069;-71
2024/04/21 02:04:30;;;;;;;13.07;2.00;;;7.80;99.90;;;;;;5381900;26;20666;-68
2024/04/21 02:06:57;;;;;;;10.70;2.22;;;7.80;99.90;;;;;;5387530;26;20000;-69
2024/04/21 02:09:24;;;;;;;12.65;1.95;;;7.80;99.90;;;;;;5403238;26;20084;-71
2024/04/21 02:11:51;;;;;;;8.60;1.80;;;7.80;99.90;;;;;;5397364;26;20038;-70
2024/04/21 02:14:18;;;;;;;9.13;1.50;;;7.80;99.90;;;;;;5384791;26;20015;-70
2024/04/21 02:16:45;;;;;;;12.05;1.65;;;7.80;99.90;;;;;;5388992;26;20394;-70
2024/04/21 02:19:12;;;;;;;10.35;1.95;;;7.80;99.90;;;;;;5393396;26;20000;-71
2024/04/21 02:21:39;;;;;;;10.50;2.22;;;7.70;99.90;;;;;;5395487;26;20011;-70
2024/04/21 02:24:06;;;;;;;6.30;2.10;;;7.70;99.90;;;;;;5386857;26;20000;-70
2024/04/21 02:26:33;;;;;;;9.77;1.63;;;7.70;99.90;;;;;;5383237;26;20527;-71
2024/04/21 02:29:00;;;;;;;11.80;1.70;;;7.70;99.90;;;;;;5377037;26;20012;-70
2024/04/21 02:31:27;;;;;;;12.75;1.55;;;7.70;99.90;;;;;;5380921;26;20003;-70
2024/04/21 02:33:54;;;;;;;11.07;2.38;;;7.70;99.90;;;;;;5379837;26;20000;-70
2024/04/21 02:36:21;;;;;;;9.40;1.63;;;7.60;99.90;;;;;;5393314;26;20584;-70
2024/04/21 02:38:48;;;;;;;10.00;3.13;;;7.60;99.90;;;;;;5390830;26;20045;-70
2024/04/21 02:41:15;;;;;;;13.25;3.75;;;7.60;99.90;;;;;;5376373;26;20005;-70
2024/04/21 02:43:42;;;;;;;6.22;1.40;;;7.60;99.90;;;;;;5395979;26;20046;-70
2024/04/21 02:46:10;;;;;;;10.18;1.77;;;7.50;99.90;;;;;;5375784;26;20004;-69
2024/04/21 02:48:37;;;;;;;9.18;1.83;;;7.60;99.90;;;;;;5390894;26;20000;-69
2024/04/21 02:51:04;;;;;;;12.95;3.03;;;7.50;99.90;;;;;;5399179;26;20005;-69
2024/04/21 02:53:31;;;;;;;12.07;1.88;;;7.60;99.90;;;;;;5399361;26;20017;-71
2024/04/21 02:55:58;;;;;;;13.10;1.90;;;7.60;99.90;;;;;;5397991;26;20455;-69
2024/04/21 02:58:25;;;;;;;16.60;2.38;;;7.60;99.90;;;;;;5379763;26;20004;-70
2024/04/21 03:00:52;;;;;;;15.20;2.85;;;7.50;99.90;;;;;;5399395;26;20004;-71
2024/04/21 03:03:19;;;;;;;7.57;1.30;;;7.40;99.90;;;;;;5397382;26;20077;-69
2024/04/21 03:05:54;;;;;;;11.02;3.05;;;7.40;99.90;;;;;;5381260;26;20018;-71
2024/04/21 03:08:21;;;;;;;12.85;2.47;;;7.40;99.90;;;;;;5388367;26;21665;-70
2024/04/21 03:10:48;;;;;;;9.65;1.88;;;7.30;99.90;;;;;;5394491;26;20094;-70
2024/04/21 03:13:15;;;;;;;8.85;1.92;;;7.20;99.90;;;;;;5400192;26;20023;-68
2024/04/21 03:15:45;;;;;;;13.95;1.95;;;7.20;99.90;;;;;;5388794;26;20012;-69
2024/04/21 03:18:12;;;;;;;14.40;3.28;;;7.10;99.90;;;;;;5387641;26;20008;-70
2024/04/21 03:20:39;;;;;;;9.48;2.72;;;7.10;99.90;;;;;;5386629;26;20083;-70
2024/04/21 03:23:07;;;;;;;15.63;2.45;;;7.00;99.90;;;;;;5400096;26;20001;-70
2024/04/21 03:25:34;;;;;;;9.73;1.73;;;7.00;99.90;;;;;;5407421;26;20004;-70
2024/04/21 03:28:02;;;;;;;12.52;1.80;;;7.00;99.90;;;;;;5393357;26;20085;-69
2024/04/21 03:30:29;;;;;;;21.30;2.60;;;7.00;99.90;;;;;;5395638;26;20469;-70
2024/04/21 03:32:56;;;;;;;11.07;1.95;;;6.90;99.90;;;;;;5399161;26;20000;-69
2024/04/21 03:35:25;;;;;;;6.85;1.35;;;6.90;99.90;;;;;;5398758;26;20516;-70
2024/04/21 03:37:52;;;;;;;13.32;2.00;;;6.80;99.90;;;;;;5393937;26;20016;-70
2024/04/21 03:40:19;;;;;;;8.23;2.15;;;6.80;99.90;;;;;;5387659;26;20036;-70
2024/04/21 03:42:46;;;;;;;14.63;2.40;;;6.70;99.90;;;;;;5384580;26;20008;-70
2024/04/21 03:45:14;;;;;;;14.10;2.15;;;6.70;99.90;;;;;;5356179;26;20027;-70
2024/04/21 03:47:40;;;;;;;12.93;2.35;;;6.60;99.90;;;;;;5393863;26;20515;-70
2024/04/21 03:50:07;;;;;;;20.10;2.08;;;6.70;99.90;;;;;;5406699;26;20011;-71
2024/04/21 03:52:34;;;;;;;12.25;1.83;;;6.60;99.90;;;;;;5382899;26;19996;-70
2024/04/21 03:55:01;;;;;;;16.20;3.50;;;6.70;99.90;;;;;;5382924;26;20551;-70
2024/04/21 03:57:30;;;;;;;16.75;2.50;;;6.60;99.90;;;;;;5388541;26;20000;-70
2024/04/21 03:59:57;;;;;;;7.30;1.73;;;6.60;99.90;;;;;;5378876;26;20019;-69
2024/04/21 04:02:26;;;;;;;7.30;1.58;;;6.50;99.90;;;;;;5395106;26;20003;-69
2024/04/21 04:04:53;;;;;;;15.20;1.73;;;6.60;99.90;;;;;;5391375;26;20011;-69
2024/04/21 04:07:21;;;;;;;14.68;2.15;;;6.50;99.90;;;;;;5392111;26;20666;-69
2024/04/21 04:09:48;;;;;;;8.07;1.90;;;6.50;99.90;;;;;;5404041;26;20081;-70
2024/04/21 04:12:15;;;;;;;12.02;1.92;;;6.50;99.90;;;;;;5362365;26;20085;-71
2024/04/21 04:14:42;;;;;;;12.00;1.85;;;6.40;99.90;;;;;;5374243;26;20051;-68
2024/04/21 04:17:09;;;;;;;4.75;1.90;;;6.40;99.90;;;;;;5389810;26;20050;-68
2024/04/21 04:19:36;;;;;;;6.03;1.30;;;6.40;99.90;;;;;;5386601;26;20008;-69
2024/04/21 04:22:03;;;;;;;11.25;2.05;;;6.30;99.90;;;;;;5397986;26;20548;-69
2024/04/21 04:24:30;;;;;;;9.15;2.47;;;6.30;99.90;;;;;;5375857;26;20014;-69
2024/04/21 04:26:57;;;;;;;12.80;1.90;;;6.30;99.90;;;;;;5381263;26;20004;-69
2024/04/21 04:29:24;;;;;;;8.82;1.73;;;6.30;99.90;;;;;;5373567;26;20371;-69
2024/04/21 04:31:51;;;;;;;15.48;2.30;;;6.20;99.90;;;;;;5381767;26;20000;-69
2024/04/21 04:34:18;;;;;;;9.32;1.50;;;6.20;99.90;;;;;;5374258;26;20072;-69
2024/04/21 04:36:45;;;;;;;12.38;1.95;;;6.20;99.90;;;;;;5390796;26;20118;-69
2024/04/21 04:39:12;;;;;;;10.35;1.42;;;6.20;99.90;;;;;;5396763;26;20019;-70
2024/04/21 04:41:39;;;;;;;15.80;2.47;;;6.20;99.90;;;;;;5390174;26;19995;-70
2024/04/21 04:44:06;;;;;;;14.27;2.38;;;6.20;99.90;;;;;;5396219;26;20081;-70
2024/04/21 04:46:33;;;;;;;6.15;1.75;;;6.10;99.90;;;;;;5370992;26;20466;-70
2024/04/21 04:49:00;;;;;;;15.35;2.75;;;6.10;99.90;;;;;;5405317;26;20016;-70
2024/04/21 04:51:26;;;;;;;11.23;3.08;;;6.10;99.90;;;;;;5395600;26;20011;-70
2024/04/21 04:53:53;;;;;;;7.15;1.65;;;6.10;99.90;;;;;;5394991;26;20068;-70
2024/04/21 04:56:20;;;;;;;11.55;2.10;;;6.10;99.90;;;;;;5401590;26;20409;-70
2024/04/21 04:58:47;;;;;;;12.48;2.75;;;6.10;99.90;;;;;;5383526;26;20051;-69
2024/04/21 05:01:14;;;;;;;9.10;2.03;;;6.20;99.90;;;;;;5376121;26;20078;-70
2024/04/21 05:03:41;;;;;;;13.35;2.03;;;6.20;99.90;;;;;;5383526;26;20048;-70
2024/04/21 05:06:08;;;;;;;13.32;1.73;;;6.20;99.90;;;;;;5376365;26;19996;-70
2024/04/21 05:08:35;;;;;;;17.90;3.13;;;6.20;99.90;;;;;;5395029;26;20239;-70
2024/04/21 05:11:02;;;;;;;19.08;4.88;;;6.20;99.90;;;;;;5379791;26;20004;-70
2024/04/21 05:13:29;;;;;;;14.30;2.20;;;6.30;99.90;;;;;;5389049;26;20019;-70
2024/04/21 05:15:56;;;;;;;12.60;1.70;;;6.30;99.90;;;;;;5388363;26;20000;-69
2024/04/21 05:18:23;;;;;;;12.70;1.63;;;6.30;99.90;;;;;;5389633;26;20054;-70
2024/04/21 05:20:50;;;;;;;11.30;1.58;;;6.30;99.90;;;;;;5402855;26;20000;-70
2024/04/21 05:23:21;;;;;;;16.42;2.10;;;6.40;99.90;;;;;;5395273;26;20018;-70
2024/04/21 05:25:49;;;;;;;9.98;1.77;;;6.30;99.90;;;;;;5382816;26;20035;-71
2024/04/21 05:28:16;;;;;;;7.60;1.58;;;6.30;99.90;;;;;;5386841;26;20041;-70
2024/04/21 05:30:59;;;;;;;15.50;2.08;;;6.30;99.90;;;;;;5408721;26;20010;-70
2024/04/21 05:33:29;;;;;;;16.40;3.00;;;6.30;99.90;;;;;;5368311;26;20019;-71
2024/04/21 05:35:56;;;;;;;9.85;2.05;;;6.30;99.90;;;;;;5396552;26;20062;-71
2024/04/21 05:38:23;;;;;;;25.00;4.63;;;6.40;99.90;;;;;;5392391;26;20067;-70
2024/04/21 05:40:50;;;;;;;16.92;2.25;;;6.30;99.90;;;;;;5396518;26;20078;-71
2024/04/21 05:43:17;;;;;;;9.88;2.10;;;6.30;99.90;;;;;;5381005;26;20008;-71
2024/04/21 05:45:44;;;;;;;11.27;1.60;;;6.20;99.90;;;;;;5388261;26;19999;-71
2024/04/21 05:48:11;;;;;;;17.85;2.40;;;6.20;99.90;;;;;;5391334;26;20005;-71
2024/04/21 05:50:42;;;;;;;33.03;8.23;;;6.30;99.90;;;;;;5384008;26;20028;-71
2024/04/21 05:53:09;;;;;;;9.80;1.60;;;6.30;99.90;;;;;;5386033;26;20003;-71
2024/04/21 05:55:36;;;;;;;11.23;2.05;;;6.30;99.90;;;;;;5389142;26;19999;-71
2024/04/21 05:58:03;;;;;;;24.23;2.40;;;6.30;99.90;;;;;;5396282;26;20016;-70
2024/04/21 06:00:30;;;;;;;12.43;2.03;;;6.30;99.90;;;;;;5372667;26;20023;-70
2024/04/21 06:02:57;;;;;;;12.68;1.90;;;6.30;99.90;;;;;;5396446;26;19996;-71
2024/04/21 06:05:24;;;;;;;7.60;1.63;;;6.30;99.90;;;;;;5394703;26;19999;-70
2024/04/21 06:07:51;;;;;;;12.32;1.88;;;6.30;99.90;;;;;;5377211;26;20014;-70
2024/04/21 06:10:18;;;;;;;9.60;1.60;;;6.30;99.90;;;;;;5386338;26;20019;-70
2024/04/21 06:12:45;;;;;;;12.43;2.75;;;6.30;99.90;;;;;;5385703;26;20000;-71
2024/04/21 06:15:11;;;;;;;10.02;1.73;;;6.40;99.90;;;;;;5382738;26;20004;-71
2024/04/21 06:17:38;;;;;;;13.30;2.25;;;6.40;99.90;;;;;;5380184;26;20000;-71
2024/04/21 06:20:06;;;;;;;8.45;2.00;;;6.40;99.90;;;;;;5388606;26;20011;-71
2024/04/21 06:22:33;;;;;;;10.35;1.92;;;6.50;99.90;;;;;;5385414;26;20003;-72
2024/04/21 06:25:00;;;;;;;10.32;2.28;;;6.60;99.90;;;;;;5397807;26;20011;-70
2024/04/21 06:27:29;;;;;;;11.38;2.00;;;6.60;99.90;;;;;;5393171;26;20073;-72
2024/04/21 06:29:57;;;;;;;9.50;1.90;;;6.60;99.90;;;;;;5384471;26;20004;-69
2024/04/21 06:32:24;;;;;;;17.33;2.38;;;6.60;99.90;;;;;;5392907;26;20012;-69
2024/04/21 06:34:51;;;;;;;12.45;1.77;;;6.60;99.90;;;;;;5394797;26;20501;-72
2024/04/21 06:37:18;;;;;;;12.50;2.00;;;6.70;99.90;;;;;;5400960;26;20015;-70
2024/04/21 06:39:45;;;;;;;14.93;3.85;;;6.70;99.90;;;;;;5391811;26;20015;-71
2024/04/21 06:42:12;;;;;;;14.80;2.15;;;6.60;99.90;;;;;;5392164;26;20408;-70
2024/04/21 06:44:39;;;;;;;12.40;2.30;;;6.60;99.90;;;;;;5404976;26;19999;-70
2024/04/21 06:47:07;;;;;;;9.02;2.50;;;6.70;99.90;;;;;;5390542;26;19997;-70
2024/04/21 06:49:36;;;;;;;6.20;1.45;;;6.70;99.90;;;;;;5404537;26;20015;-70
2024/04/21 06:52:04;;;;;;;11.15;2.38;;;6.80;99.90;;;;;;5377280;26;20000;-70
2024/04/21 06:54:32;;;;;;;10.40;1.75;;;6.80;99.90;;;;;;5393086;26;20014;-72
2024/04/21 06:56:59;;;;;;;12.90;2.30;;;6.90;99.90;;;;;;5401024;26;20091;-71
2024/04/21 06:59:26;;;;;;;11.43;1.42;;;7.00;99.90;;;;;;5391673;26;20040;-71
2024/04/21 07:01:53;;;;;;;9.52;1.67;;;7.00;99.90;;;;;;5392208;26;20004;-71
2024/04/21 07:04:20;;;;;;;15.35;2.10;;;7.00;99.90;;;;;;5393719;26;20062;-71
2024/04/21 07:06:47;;;;;;;10.10;1.40;;;7.10;99.90;;;;;;5389531;26;20008;-72
2024/04/21 07:09:14;;;;;;;6.85;1.83;;;7.10;99.90;;;;;;5373880;26;20674;-71
2024/04/21 07:11:41;;;;;;;10.55;1.60;;;7.10;99.90;;;;;;5390300;26;20012;-71
2024/04/21 07:14:08;;;;;;;16.30;2.45;;;7.10;99.90;;;;;;5394567;26;19996;-72
2024/04/21 07:16:46;;;;;;;9.80;1.48;;;7.10;99.90;;;;;;5389363;26;20004;-72
2024/04/21 07:19:13;;;;;;;7.07;1.75;;;7.30;99.90;;;;;;5381597;26;20065;-71
2024/04/21 07:21:40;;;;;;;9.15;1.50;;;7.30;99.90;;;;;;5384809;26;20482;-71
2024/04/21 07:24:07;;;;;;;9.35;1.35;;;7.40;99.90;;;;;;5388483;26;19999;-71
2024/04/21 07:26:34;;;;;;;8.48;1.65;;;7.40;99.90;;;;;;5404713;26;20032;-70
2024/04/21 07:29:01;;;;;;;6.68;1.40;;;7.40;99.90;;;;;;5382349;26;20000;-70
2024/04/21 07:31:30;;;;;;;12.18;1.75;;;7.50;99.90;;;;;;5382513;26;20007;-70
2024/04/21 07:33:57;;;;;;;6.38;1.77;;;7.50;99.90;;;;;;5382467;26;20007;-71
2024/04/21 07:36:24;;;;;;;22.85;3.80;;;7.50;99.90;;;;;;5378114;26;20011;-69
2024/04/21 07:38:51;;;;;;;15.30;2.70;;;7.60;99.90;;;;;;5391131;26;20000;-71
2024/04/21 07:41:19;;;;;;;13.90;1.83;;;7.50;99.90;;;;;;5394156;26;20519;-70
2024/04/21 07:43:46;;;;;;;13.10;2.05;;;7.60;99.90;;;;;;5365471;26;20076;-69
2024/04/21 07:46:17;;;;;;;12.20;2.90;;;7.60;99.90;;;;;;5403952;26;20018;-70
2024/04/21 07:48:44;;;;;;;10.85;2.03;;;7.60;99.90;;;;;;5388301;26;20095;-71
2024/04/21 07:51:11;;;;;;;18.88;4.05;;;7.60;99.90;;;;;;5399180;26;20455;-69
2024/04/21 07:53:41;;;;;;;16.10;3.20;;;7.70;99.90;;;;;;5352775;26;20008;-70
2024/04/21 07:56:08;;;;;;;11.38;1.70;;;7.70;99.90;;;;;;5382063;26;20014;-70
2024/04/21 07:58:35;;;;;;;11.02;1.85;;;7.80;99.90;;;;;;5392827;26;20003;-71
2024/04/21 08:01:06;;;;;;;10.98;1.90;;;7.80;99.90;;;;;;5380822;26;20003;-70
2024/04/21 08:03:33;;;;;;;8.13;1.52;;;7.90;99.90;;;;;;5395161;26;20042;-71
2024/04/21 08:06:00;;;;;;;8.57;2.17;;;8.00;99.90;;;;;;5400806;26;20034;-71
2024/04/21 08:08:28;;;;;;;13.32;4.20;;;8.10;99.90;;;;;;5402537;26;20396;-70
2024/04/21 08:10:58;;;;;;;13.15;2.20;;;8.10;99.90;;;;;;5400606;26;20003;-71
2024/04/21 08:13:31;;;;;;;15.05;1.70;;;8.20;99.90;;;;;;5389850;26;20495;-70
2024/04/21 08:15:58;;;;;;;10.35;1.63;;;8.30;99.90;;;;;;5405793;26;20004;-70
2024/04/21 08:18:25;;;;;;;12.20;2.00;;;8.50;99.90;;;;;;5382073;26;20000;-69
2024/04/21 08:20:53;;;;;;;12.25;2.08;;;8.60;99.90;;;;;;5402457;26;20015;-70
2024/04/21 08:23:20;;;;;;;6.85;1.33;;;8.70;99.90;;;;;;5396158;26;20067;-70
2024/04/21 08:25:47;;;;;;;10.23;2.38;;;8.60;99.90;;;;;;5388748;26;20004;-69
2024/04/21 08:28:14;;;;;;;10.32;2.03;;;8.60;99.90;;;;;;5384897;26;20408;-71
2024/04/21 08:30:43;;;;;;;7.20;1.90;;;8.70;99.90;;;;;;5393377;26;20014;-71
2024/04/21 08:33:11;;;;;;;10.75;1.92;;;8.80;99.90;;;;;;5393720;26;20026;-71
2024/04/21 08:35:38;;;;;;;8.00;1.60;;;8.80;99.90;;;;;;5395633;26;20003;-71
2024/04/21 08:38:05;;;;;;;13.25;2.08;;;8.80;99.90;;;;;;5393647;26;20011;-70
2024/04/21 08:40:37;;;;;;;17.13;2.00;;;8.90;99.90;;;;;;5395538;26;20008;-68
2024/04/21 08:43:04;;;;;;;11.70;2.00;;;9.00;99.90;;;;;;5407204;26;19999;-70
2024/04/21 08:45:32;;;;;;;11.02;1.88;;;9.10;99.90;;;;;;5385765;26;20015;-70
2024/04/21 08:47:59;;;;;;;7.18;1.67;;;9.10;99.90;;;;;;5382704;26;20028;-70
2024/04/21 08:50:27;;;;;;;10.80;1.65;;;9.20;99.90;;;;;;5374257;26;20052;-70
2024/04/21 08:52:54;;;;;;;10.60;1.35;;;9.20;99.90;;;;;;5394077;26;20616;-69
2024/04/21 08:55:20;;;;;;;8.85;1.90;;;9.30;99.90;;;;;;5382709;26;20096;-69
2024/04/21 08:57:48;;;;;;;5.57;1.55;;;9.30;99.90;;;;;;5399667;26;20077;-71
2024/04/21 09:00:15;;;;;;;10.73;2.75;;;9.30;99.90;;;;;;5385026;26;20016;-72
2024/04/21 09:02:42;;;;;;;7.60;1.63;;;9.20;99.90;;;;;;5397294;26;20015;-72
2024/04/21 09:05:09;;;;;;;9.30;1.75;;;9.30;99.90;;;;;;5382954;26;20007;-70
2024/04/21 09:07:37;;;;;;;7.32;1.70;;;9.40;99.90;;;;;;5400737;26;20478;-70
2024/04/21 09:10:04;;;;;;;9.68;1.70;;;9.50;99.90;;;;;;5388829;26;20026;-71
2024/04/21 09:12:31;;;;;;;9.55;1.83;;;9.40;99.90;;;;;;5381719;26;20004;-71
2024/04/21 09:14:58;;;;;;;15.43;1.83;;;9.50;99.90;;;;;;5394091;26;20014;-71
2024/04/21 09:17:28;;;;;;;5.90;1.77;;;9.50;99.90;;;;;;5380883;26;20046;-71
2024/04/21 09:19:55;;;;;;;7.95;1.50;;;9.60;99.90;;;;;;5396532;26;20018;-71
2024/04/21 09:22:23;;;;;;;6.45;1.48;;;9.60;99.90;;;;;;5398475;26;20003;-71
2024/04/21 09:24:50;;;;;;;8.40;1.55;;;9.70;99.90;;;;;;5403432;26;20012;-70
2024/04/21 09:27:19;;;;;;;5.80;1.10;;;9.80;99.90;;;;;;5400548;26;20012;-70
2024/04/21 09:29:45;;;;;;;6.53;1.30;;;9.90;99.90;;;;;;5404499;26;20000;-70
2024/04/21 09:32:13;;;;;;;5.88;1.25;;;10.10;99.90;;;;;;5399219;26;20185;-70
2024/04/21 09:34:40;;;;;;;10.07;1.67;;;10.10;99.90;;;;;;5405302;26;20022;-69
2024/04/21 09:37:07;;;;;;;9.07;1.52;;;10.20;99.90;;;;;;5396196;26;20132;-69
2024/04/21 09:39:34;;;;;;;6.13;1.75;;;10.20;99.90;;;;;;5394442;26;20043;-70
2024/04/21 09:42:01;;;;;;;7.72;1.60;;;10.40;99.90;;;;;;5391135;26;20027;-69
2024/04/21 09:44:28;;;;;;;10.95;2.10;;;10.40;99.90;;;;;;5401643;26;20004;-69
2024/04/21 09:46:56;;;;;;;11.32;1.77;;;10.50;99.90;;;;;;5390325;26;20001;-72
2024/04/21 09:49:23;;;;;;;8.05;1.85;;;10.60;99.90;;;;;;5402534;26;20004;-69
2024/04/21 09:51:50;;;;;;;7.30;1.20;;;10.50;99.90;;;;;;5373171;26;20000;-71
2024/04/21 09:54:19;;;;;;;4.43;1.17;;;10.50;99.90;;;;;;5367953;26;20012;-72
2024/04/21 09:56:53;;;;;;;8.82;1.60;;;10.60;99.90;;;;;;5375529;26;20050;-71
2024/04/21 09:59:21;;;;;;;5.88;1.65;;;10.60;99.90;;;;;;5379799;26;20012;-71
2024/04/21 10:01:48;;;;;;;10.32;1.48;;;10.50;99.90;;;;;;5373144;26;20022;-71
2024/04/21 10:04:18;;;;;;;10.52;1.75;;;10.50;99.90;;;;;;5402364;26;20400;-73
2024/04/21 10:06:46;;;;;;;13.75;2.60;;;10.50;99.90;;;;;;5017133;26;10000416;-73
2024/04/21 10:09:13;;;;;;;9.05;2.58;;;10.50;99.90;;;;;;5374513;26;20008;-71
2024/04/21 10:11:40;;;;;;;10.75;1.60;;;10.40;99.90;;;;;;5391564;26;20011;-72
2024/04/21 10:14:07;;;;;;;4.70;1.20;;;10.50;99.90;;;;;;5380729;26;20020;-72
2024/04/21 10:16:39;;;;;;;7.53;1.48;;;10.40;99.90;;;;;;5385919;26;20015;-72
2024/04/21 10:19:08;;;;;;;8.18;1.45;;;10.40;99.90;;;;;;5374182;26;20015;-71
2024/04/21 10:21:35;;;;;;;6.88;1.48;;;10.30;99.90;;;;;;5372326;26;20213;-71
2024/04/21 10:24:03;;;;;;;10.30;2.05;;;10.30;99.90;;;;;;5378612;26;20027;-72
2024/04/21 10:26:30;;;;;;;9.13;1.60;;;10.40;99.90;;;;;;5387738;26;20007;-72
2024/04/21 10:29:10;;;;;;;9.85;1.45;;;10.30;99.90;;;;;;5381523;26;20023;-72
2024/04/21 10:31:37;;;;;;;5.30;1.60;;;10.40;99.90;;;;;;5400721;26;20036;-73
2024/04/21 10:34:08;;;;;;;6.30;1.00;;;10.50;99.90;;;;;;5366452;26;20015;-73
2024/04/21 10:36:39;;;;;;;11.32;3.22;;;10.60;99.90;;;;;;5387887;26;20008;-72
2024/04/21 10:39:07;;;;;;;7.72;1.52;;;10.70;99.90;;;;;;5395771;26;20043;-72
2024/04/21 10:41:43;;;;;;;16.33;3.10;;;10.80;99.90;;;;;;5393504;26;20056;-72
2024/04/21 10:44:11;;;;;;;16.45;1.98;;;10.80;99.90;;;;;;5370722;26;20090;-72
2024/04/21 10:46:39;;;;;;;9.27;1.42;;;10.90;99.90;;;;;;5363329;26;20011;-70
2024/04/21 10:49:05;;;;;;;8.32;1.48;;;10.70;99.90;;;;;;5383233;26;20004;-71
2024/04/21 10:51:33;;;;;;;9.93;1.70;;;10.70;99.90;;;;;;5381020;26;20495;-71
2024/04/21 10:54:00;;;;;;;8.65;1.40;;;10.90;99.90;;;;;;5384487;26;20036;-72
2024/04/21 10:56:27;;;;;;;10.90;1.45;;;11.10;99.90;;;;;;5361406;26;20022;-71
2024/04/21 10:58:54;;;;;;;12.05;3.83;;;11.30;99.90;;;;;;5386443;26;20012;-72
2024/04/21 11:01:23;;;;;;;6.65;1.60;;;11.30;99.90;;;;;;5393664;26;20014;-72
2024/04/21 11:03:50;;;;;;;8.10;1.90;;;11.10;99.90;;;;;;5372896;26;20004;-70
2024/04/21 11:06:18;;;;;;;7.78;1.50;;;11.10;99.90;;;;;;5381602;26;20054;-69
2024/04/21 11:08:47;;;;;;;8.98;2.35;;;11.10;99.90;;;;;;5379223;26;20089;-70
2024/04/21 11:11:16;;;;;;;8.27;1.83;;;11.10;99.90;;;;;;5398635;26;20035;-69
2024/04/21 11:13:43;;;;;;;9.90;1.30;;;11.10;99.90;;;;;;5376668;26;20012;-72
2024/04/21 11:16:11;;;;;;;6.15;1.35;;;11.10;99.90;;;;;;5385889;26;20011;-73
2024/04/21 11:18:41;;;;;;;9.60;1.77;;;11.00;99.90;;;;;;5378713;26;20759;-71
2024/04/21 11:21:08;;;;;;;7.13;2.03;;;11.10;99.90;;;;;;5377209;26;20014;-72
2024/04/21 11:23:35;;;;;;;6.60;1.70;;;11.20;99.90;;;;;;5396724;26;20462;-71
2024/04/21 11:26:02;;;;;;;8.13;1.58;;;11.20;99.90;;;;;;5385773;26;20027;-70
2024/04/21 11:28:29;;;;;;;7.88;2.40;;;11.30;99.90;;;;;;5371228;26;20559;-72
2024/04/21 11:31:04;;;;;;;10.23;1.88;;;11.30;99.90;;;;;;5377904;26;20015;-72
2024/04/21 11:33:32;;;;;;;5.07;1.08;;;11.30;99.90;;;;;;5386419;26;20003;-72
2024/04/21 11:36:12;;;;;;;10.18;2.80;;;11.30;99.90;;;;;;5384474;26;20003;-71
2024/04/21 11:38:39;;;;;;;8.27;1.75;;;11.20;99.90;;;;;;5387523;26;20463;-72
2024/04/21 11:41:06;;;;;;;8.43;1.40;;;11.20;99.90;;;;;;5378496;26;20028;-72
2024/04/21 11:43:33;;;;;;;13.18;2.00;;;11.20;99.90;;;;;;5360598;26;20015;-72
2024/04/21 11:46:03;;;;;;;7.25;1.38;;;11.20;99.90;;;;;;5379640;26;20040;-72
2024/04/21 11:48:31;;;;;;;7.47;1.95;;;11.30;99.90;;;;;;5373591;26;20333;-72
2024/04/21 11:50:59;;;;;;;5.25;1.38;;;11.40;99.90;;;;;;5377186;26;20008;-71
2024/04/21 11:53:26;;;;;;;6.03;1.45;;;11.40;99.90;;;;;;5375253;26;20483;-71
2024/04/21 11:55:53;;;;;;;8.55;1.50;;;11.40;99.90;;;;;;5396621;26;20000;-73
2024/04/21 11:58:20;;;;;;;13.52;2.13;;;11.60;99.90;;;;;;5398807;26;20459;-70
2024/04/21 12:00:47;;;;;;;4.30;1.13;;;11.90;99.90;;;;;;5382138;26;20015;-72
2024/04/21 12:03:14;;;;;;;8.93;1.40;;;12.20;99.90;;;;;;5387997;26;20007;-72
2024/04/21 12:05:44;;;;;;;15.48;1.92;;;12.10;99.90;;;;;;5395672;26;20011;-72
2024/04/21 12:08:11;;;;;;;8.68;1.98;;;12.20;99.90;;;;;;5386724;26;20068;-73
2024/04/21 12:10:38;;;;;;;8.57;1.38;;;12.20;99.90;;;;;;5393209;26;20402;-69
2024/04/21 12:13:05;;;;;;;7.38;2.13;;;12.20;99.90;;;;;;5391801;26;20004;-72
2024/04/21 12:15:32;;;;;;;10.73;2.40;;;12.10;99.90;;;;;;5375511;26;20066;-72
2024/04/21 12:18:06;;;;;;;10.38;2.17;;;12.00;99.90;;;;;;5381561;26;20210;-72
2024/04/21 12:20:34;;;;;;;8.70;2.25;;;11.80;99.90;;;;;;5407749;26;20073;-72
2024/04/21 12:23:02;;;;;;;9.55;1.63;;;11.60;99.90;;;;;;5408106;26;20004;-71
2024/04/21 12:25:29;;;;;;;6.90;1.60;;;11.40;99.90;;;;;;5388899;26;20008;-71
2024/04/21 12:27:56;;;;;;;8.25;2.00;;;11.40;99.90;;;;;;5391141;26;20004;-71
2024/04/21 12:30:23;;;;;;;9.43;1.88;;;11.30;99.90;;;;;;5378721;26;19999;-72
2024/04/21 12:32:51;;;;;;;8.73;2.03;;;11.30;99.90;;;;;;5396011;26;20022;-71
2024/04/21 12:35:18;;;;;;;9.93;1.52;;;11.30;99.90;;;;;;5401225;26;20040;-72
2024/04/21 12:37:45;;;;;;;5.93;1.45;;;11.40;99.90;;;;;;5390606;26;20467;-71
2024/04/21 12:40:12;;;;;;;9.25;1.95;;;11.50;99.90;;;;;;5394337;26;20029;-71
2024/04/21 12:42:39;;;;;;;13.27;1.80;;;11.60;99.90;;;;;;5396962;26;20007;-71
2024/04/21 12:45:07;;;;;;;11.45;1.92;;;11.80;99.90;;;;;;5403601;26;20032;-70
2024/04/21 12:47:38;;;;;;;8.35;2.05;;;12.00;99.90;;;;;;5397978;26;20007;-70
2024/04/21 12:50:05;;;;;;;11.35;1.88;;;12.20;99.90;;;;;;5395154;26;20015;-70